createdAt,value
2018-12-18T00:02:15.962Z,23.00
2018-12-18T00:04:43.381Z,22.20
2018-12-18T00:07:10.820Z,22.07
2018-12-18T00:09:38.195Z,21.90
2018-12-18T00:12:05.606Z,24.63
2018-12-18T00:14:33.061Z,25.43
2018-12-18T00:17:00.431Z,22.67
2018-12-18T00:19:27.844Z,22.87
2018-12-18T00:21:55.255Z,19.83
2018-12-18T00:24:22.660Z,18.40
2018-12-18T00:26:50.019Z,18.30
2018-12-18T00:29:17.379Z,18.97
2018-12-18T00:31:44.753Z,17.30
2018-12-18T00:34:12.091Z,18.23
2018-12-18T00:36:39.512Z,18.03
2018-12-18T00:39:11.501Z,18.33
2018-12-18T00:41:38.876Z,20.73
2018-12-18T00:44:06.251Z,18.20
2018-12-18T00:49:39.511Z,20.73
2018-12-18T00:52:06.848Z,27.63
2018-12-18T00:54:34.215Z,20.30
2018-12-18T01:03:06.520Z,15.90
2018-12-18T01:05:33.893Z,17.03
2018-12-18T01:08:01.300Z,25.33
2018-12-18T01:10:28.670Z,24.53
2018-12-18T01:12:56.071Z,24.47
2018-12-18T01:15:23.470Z,26.73
2018-12-18T01:17:57.866Z,33.47
2018-12-18T01:20:25.257Z,25.70
2018-12-18T01:22:52.846Z,30.13
2018-12-18T01:25:20.265Z,49.30
2018-12-18T01:27:47.671Z,53.27
2018-12-18T01:30:15.180Z,49.33
2018-12-18T01:32:42.555Z,22.30
2018-12-18T01:35:09.922Z,23.40
2018-12-18T01:37:37.292Z,23.30
2018-12-18T01:40:05.170Z,19.67
2018-12-18T01:42:32.506Z,19.67
2018-12-18T01:44:59.883Z,24.67
2018-12-18T01:47:39.780Z,20.77
2018-12-18T01:50:07.301Z,19.13
2018-12-18T01:52:34.681Z,20.50
2018-12-18T01:55:04.662Z,16.57
2018-12-18T02:03:21.100Z,15.40
2018-12-18T02:05:48.705Z,18.40
2018-12-18T02:08:16.070Z,16.47
2018-12-18T02:10:43.411Z,14.77
2018-12-18T02:13:10.782Z,16.53
2018-12-18T02:15:39.351Z,18.00
2018-12-18T02:18:06.728Z,16.70
2018-12-18T02:20:39.514Z,18.60
2018-12-18T02:23:06.892Z,17.87
2018-12-18T02:25:34.286Z,15.90
2018-12-18T02:28:01.633Z,22.27
2018-12-18T02:30:29.164Z,18.83
2018-12-18T02:32:56.512Z,18.33
2018-12-18T02:35:23.877Z,22.40
2018-12-18T02:37:52.290Z,25.43
2018-12-18T02:40:19.621Z,33.13
2018-12-18T02:42:46.984Z,25.47
2018-12-18T02:45:14.349Z,46.63
2018-12-18T02:47:41.827Z,17.57
2018-12-18T02:50:09.171Z,22.07
2018-12-18T02:52:36.652Z,21.67
2018-12-18T02:55:04.162Z,48.67
2018-12-18T03:06:09.732Z,20.43
2018-12-18T03:08:37.100Z,28.13
2018-12-18T03:11:04.459Z,19.50
2018-12-18T03:13:31.891Z,20.50
2018-12-18T03:15:59.264Z,16.70
2018-12-18T03:18:26.623Z,18.00
2018-12-18T03:20:53.951Z,22.77
2018-12-18T03:23:21.326Z,18.33
2018-12-18T03:25:48.671Z,20.83
2018-12-18T03:28:16.026Z,19.70
2018-12-18T03:30:43.389Z,14.83
2018-12-18T03:33:10.777Z,26.33
2018-12-18T03:35:38.132Z,35.70
2018-12-18T03:38:12.566Z,14.80
2018-12-18T03:40:39.910Z,25.60
2018-12-18T03:43:10.714Z,16.60
2018-12-18T03:45:38.078Z,22.77
2018-12-18T03:48:05.504Z,17.60
2018-12-18T03:50:32.900Z,21.90
2018-12-18T03:53:02.087Z,16.67
2018-12-18T03:55:29.459Z,16.07
2018-12-18T03:57:56.765Z,39.77
2018-12-18T04:00:27.685Z,24.90
2018-12-18T04:03:00.896Z,14.83
2018-12-18T04:05:28.266Z,18.13
2018-12-18T04:08:01.743Z,16.30
2018-12-18T04:10:32.239Z,16.70
2018-12-18T04:12:59.655Z,16.17
2018-12-18T04:15:28.082Z,25.20
2018-12-18T04:17:55.435Z,13.43
2018-12-18T04:20:22.811Z,16.37
2018-12-18T04:22:53.873Z,18.97
2018-12-18T04:25:27.348Z,18.80
2018-12-18T04:27:58.550Z,14.97
2018-12-18T04:30:25.923Z,11.60
2018-12-18T04:32:56.369Z,13.63
2018-12-18T04:35:27.663Z,15.70
2018-12-18T04:37:58.588Z,14.03
2018-12-18T04:40:29.546Z,12.37
2018-12-18T04:42:56.912Z,12.33
2018-12-18T04:45:24.284Z,13.53
2018-12-18T04:47:52.695Z,10.90
2018-12-18T04:50:23.299Z,12.07
2018-12-18T04:52:50.654Z,21.60
2018-12-18T04:55:21.296Z,17.43
2018-12-18T04:58:00.564Z,12.87
2018-12-18T05:00:30.003Z,16.40
2018-12-18T05:03:01.077Z,14.70
2018-12-18T05:05:28.438Z,25.50
2018-12-18T05:07:59.288Z,18.17
2018-12-18T05:10:30.347Z,23.37
2018-12-18T05:12:59.378Z,30.03
2018-12-18T05:15:30.296Z,15.43
2018-12-18T05:18:01.288Z,24.00
2018-12-18T05:20:31.876Z,22.87
2018-12-18T05:23:03.053Z,16.87
2018-12-18T05:25:33.779Z,28.03
2018-12-18T05:28:05.089Z,58.97
2018-12-18T05:30:36.223Z,34.70
2018-12-18T05:33:03.633Z,26.37
2018-12-18T05:35:32.229Z,24.30
2018-12-18T05:38:03.886Z,28.57
2018-12-18T05:40:31.232Z,25.40
2018-12-18T05:42:58.599Z,22.73
2018-12-18T05:45:25.972Z,17.47
2018-12-18T05:47:56.725Z,21.63
2018-12-18T05:50:24.088Z,34.70
2018-12-18T05:52:55.416Z,22.93
2018-12-18T05:55:28.923Z,20.33
2018-12-18T05:57:56.323Z,15.37
2018-12-18T06:00:23.686Z,14.57
2018-12-18T06:02:56.664Z,15.53
2018-12-18T06:05:23.986Z,15.03
2018-12-18T06:07:53.203Z,20.57
2018-12-18T06:10:20.628Z,12.70
2018-12-18T06:12:47.995Z,17.27
2018-12-18T06:15:15.373Z,20.77
2018-12-18T06:17:56.983Z,17.83
2018-12-18T06:20:24.338Z,24.43
2018-12-18T06:22:56.034Z,30.27
2018-12-18T06:25:25.146Z,26.87
2018-12-18T06:27:52.520Z,19.50
2018-12-18T06:30:19.908Z,19.20
2018-12-18T06:32:47.258Z,19.37
2018-12-18T06:35:16.528Z,15.87
2018-12-18T06:37:52.004Z,19.87
2018-12-18T06:40:19.423Z,18.47
2018-12-18T06:42:46.787Z,20.63
2018-12-18T06:45:17.279Z,19.50
2018-12-18T06:51:01.851Z,14.07
2018-12-18T06:53:29.350Z,21.13
2018-12-18T06:56:00.475Z,24.80
2018-12-18T06:58:27.809Z,32.73
2018-12-18T07:00:55.194Z,30.27
2018-12-18T07:03:25.828Z,33.40
2018-12-18T07:05:53.215Z,32.73
2018-12-18T07:08:23.884Z,29.43
2018-12-18T07:10:51.261Z,31.67
2018-12-18T07:13:18.590Z,26.17
2018-12-18T07:15:49.588Z,26.10
2018-12-18T07:18:16.940Z,26.40
2018-12-18T07:20:50.555Z,24.90
2018-12-18T07:23:17.925Z,27.57
2018-12-18T07:25:45.264Z,27.03
2018-12-18T07:28:15.702Z,29.77
2018-12-18T07:30:43.115Z,28.67
2018-12-18T07:33:10.471Z,28.70
2018-12-18T07:35:37.841Z,33.17
2018-12-18T07:38:05.381Z,31.00
2018-12-18T07:40:32.744Z,28.17
2018-12-18T07:43:00.089Z,25.20
2018-12-18T07:45:27.484Z,21.87
2018-12-18T07:47:54.884Z,21.37
2018-12-18T07:50:22.256Z,30.00
2018-12-18T07:52:49.649Z,16.33
2018-12-18T07:55:17.000Z,34.60
2018-12-18T07:57:47.999Z,17.10
2018-12-18T08:00:15.416Z,14.73
2018-12-18T08:02:42.734Z,21.23
2018-12-18T08:05:10.105Z,20.17
2018-12-18T08:07:39.498Z,24.40
2018-12-18T08:10:07.125Z,24.13
2018-12-18T08:12:34.496Z,31.37
2018-12-18T08:15:01.910Z,27.97
2018-12-18T08:17:31.308Z,27.20
2018-12-18T08:19:58.720Z,25.17
2018-12-18T08:22:26.108Z,27.97
2018-12-18T08:24:53.520Z,27.83
2018-12-18T08:27:20.887Z,22.67
2018-12-18T08:29:48.296Z,25.40
2018-12-18T08:32:15.823Z,26.67
2018-12-18T08:34:43.320Z,26.53
2018-12-18T08:37:14.609Z,27.80
2018-12-18T08:39:42.006Z,29.37
2018-12-18T08:42:09.397Z,24.97
2018-12-18T08:44:36.834Z,24.23
2018-12-18T08:50:01.360Z,31.37
2018-12-18T08:52:28.708Z,30.57
2018-12-18T08:54:56.090Z,24.13
2018-12-18T08:57:23.436Z,22.77
2018-12-18T08:59:54.055Z,25.30
2018-12-18T09:02:21.421Z,21.90
2018-12-18T09:04:48.811Z,26.17
2018-12-18T09:07:21.144Z,23.63
2018-12-18T09:09:52.004Z,20.93
2018-12-18T09:12:19.415Z,23.53
2018-12-18T09:14:52.384Z,25.47
2018-12-18T09:17:29.571Z,22.53
2018-12-18T09:19:56.999Z,23.73
2018-12-18T09:22:24.389Z,22.23
2018-12-18T09:24:55.065Z,18.77
2018-12-18T09:27:22.400Z,20.17
2018-12-18T09:29:49.739Z,16.77
2018-12-18T09:32:17.111Z,16.17
2018-12-18T09:34:44.469Z,16.63
2018-12-18T09:37:36.014Z,18.70
2018-12-18T09:40:17.373Z,16.47
2018-12-18T09:42:50.339Z,21.33
2018-12-18T09:45:23.651Z,19.63
2018-12-18T09:47:53.055Z,18.57
2018-12-18T09:50:24.075Z,18.97
2018-12-18T09:52:55.074Z,17.63
2018-12-18T09:55:22.414Z,19.00
2018-12-18T09:57:57.461Z,22.17
2018-12-18T10:00:26.429Z,21.70
2018-12-18T10:02:53.969Z,24.30
2018-12-18T10:05:21.341Z,26.37
2018-12-18T10:07:52.039Z,25.13
2018-12-18T10:10:23.099Z,25.53
2018-12-18T10:12:55.999Z,17.30
2018-12-18T10:15:26.211Z,16.90
2018-12-18T10:17:55.495Z,18.57
2018-12-18T10:20:26.465Z,20.27
2018-12-18T10:22:57.319Z,21.40
2018-12-18T10:25:28.368Z,17.63
2018-12-18T10:27:59.219Z,17.57
2018-12-18T10:30:26.585Z,17.67
2018-12-18T10:32:57.404Z,16.73
2018-12-18T10:35:28.429Z,18.13
2018-12-18T10:37:57.593Z,17.60
2018-12-18T10:40:28.885Z,17.53
2018-12-18T10:42:59.975Z,16.07
2018-12-18T10:45:32.121Z,15.57
2018-12-18T10:48:03.284Z,10.50
2018-12-18T10:50:32.209Z,13.50
2018-12-18T10:53:01.416Z,10.57
2018-12-18T10:55:32.738Z,12.80
2018-12-18T10:58:05.959Z,12.17
2018-12-18T11:00:44.445Z,8.23
2018-12-18T11:03:13.074Z,5.67
2018-12-18T11:05:44.345Z,10.47
2018-12-18T11:08:17.499Z,8.10
2018-12-18T11:10:48.209Z,8.13
2018-12-18T11:13:19.120Z,7.70
2018-12-18T11:15:46.518Z,7.70
2018-12-18T11:18:14.067Z,7.87
2018-12-18T11:20:41.444Z,9.80
2018-12-18T11:23:08.775Z,7.37
2018-12-18T11:25:36.170Z,5.73
2018-12-18T11:28:21.740Z,5.00
2018-12-18T11:30:49.139Z,26.27
2018-12-18T11:33:20.085Z,6.80
2018-12-18T11:35:51.231Z,3.70
2018-12-18T11:38:21.930Z,3.90
2018-12-18T11:40:49.435Z,4.83
2018-12-18T11:43:22.209Z,4.23
2018-12-18T11:45:49.586Z,5.50
2018-12-18T11:48:16.982Z,4.57
2018-12-18T11:50:44.331Z,4.47
2018-12-18T11:53:11.720Z,5.23
2018-12-18T11:55:39.080Z,5.13
2018-12-18T11:58:06.455Z,7.00
2018-12-18T12:00:33.945Z,4.20
2018-12-18T12:03:01.330Z,3.00
2018-12-18T12:05:28.696Z,3.30
2018-12-18T12:07:56.125Z,2.80
2018-12-18T12:10:23.486Z,4.27
2018-12-18T12:12:50.894Z,2.53
2018-12-18T12:15:18.310Z,3.23
2018-12-18T12:17:45.855Z,3.87
2018-12-18T12:20:13.300Z,3.23
2018-12-18T12:22:40.717Z,3.63
2018-12-18T12:25:08.200Z,3.50
2018-12-18T12:27:41.155Z,2.80
2018-12-18T12:30:08.847Z,3.47
2018-12-18T12:32:36.304Z,3.60
2018-12-18T12:35:04.236Z,3.07
2018-12-18T12:37:31.631Z,5.10
2018-12-18T12:39:58.991Z,5.03
2018-12-18T12:42:26.350Z,4.63
2018-12-18T12:44:53.813Z,4.47
2018-12-18T12:47:21.141Z,2.23
2018-12-18T12:49:48.520Z,4.30
2018-12-18T12:52:15.879Z,2.80
2018-12-18T12:54:43.295Z,4.73
2018-12-18T12:57:10.874Z,2.67
2018-12-18T12:59:38.287Z,3.10
2018-12-18T13:02:05.615Z,3.17
2018-12-18T13:04:33.021Z,3.50
2018-12-18T13:07:02.361Z,12.27
2018-12-18T13:09:29.781Z,2.80
2018-12-18T13:11:57.125Z,2.10
2018-12-18T13:14:24.519Z,2.90
2018-12-18T13:16:51.966Z,3.20
2018-12-18T13:19:19.302Z,2.57
2018-12-18T13:21:46.664Z,3.93
2018-12-18T13:24:14.081Z,7.10
2018-12-18T13:26:41.505Z,3.47
2018-12-18T13:29:08.920Z,4.07
2018-12-18T13:31:36.264Z,3.40
2018-12-18T13:34:03.670Z,3.67
2018-12-18T13:36:31.038Z,3.10
2018-12-18T13:38:58.418Z,5.03
2018-12-18T13:41:25.804Z,4.07
2018-12-18T13:43:53.198Z,4.40
2018-12-18T13:46:20.565Z,3.97
2018-12-18T13:48:47.948Z,6.40
2018-12-18T13:51:15.350Z,5.70
2018-12-18T13:53:42.875Z,5.17
2018-12-18T13:56:10.260Z,5.13
2018-12-18T13:58:37.663Z,4.20
2018-12-18T14:01:04.994Z,4.13
2018-12-18T14:03:32.425Z,6.60
2018-12-18T14:05:59.778Z,4.57
2018-12-18T14:08:27.253Z,5.30
2018-12-18T14:10:54.590Z,3.53
2018-12-18T14:13:21.970Z,3.70
2018-12-18T14:15:49.384Z,5.47
2018-12-18T14:18:16.754Z,2.60
2018-12-18T14:20:44.172Z,3.87
2018-12-18T14:23:11.551Z,4.40
2018-12-18T14:25:38.949Z,4.00
2018-12-18T14:28:06.348Z,4.07
2018-12-18T14:30:33.753Z,6.23
2018-12-18T14:33:01.193Z,4.67
2018-12-18T14:35:28.576Z,3.40
2018-12-18T14:37:56.068Z,5.80
2018-12-18T14:40:23.415Z,5.47
2018-12-18T14:42:50.816Z,5.63
2018-12-18T14:45:18.225Z,4.92
2018-12-18T14:47:45.609Z,5.03
2018-12-18T14:50:13.295Z,6.23
2018-12-18T14:52:40.663Z,4.73
2018-12-18T14:55:08.075Z,3.97
2018-12-18T14:57:35.408Z,5.93
2018-12-18T15:00:03.082Z,5.27
2018-12-18T15:02:30.480Z,6.97
2018-12-18T15:05:01.516Z,4.77
2018-12-18T15:07:28.908Z,5.37
2018-12-18T15:09:56.361Z,9.50
2018-12-18T15:12:23.738Z,7.43
2018-12-18T15:14:51.165Z,6.17
2018-12-18T15:17:18.547Z,60.37
2018-12-18T15:19:45.940Z,20.30
2018-12-18T15:22:13.263Z,11.67
2018-12-18T15:24:40.690Z,10.03
2018-12-18T15:27:08.036Z,7.50
2018-12-18T15:29:35.894Z,14.90
2018-12-18T15:32:03.355Z,16.63
2018-12-18T15:34:30.698Z,9.97
2018-12-18T15:36:58.057Z,8.87
2018-12-18T15:39:25.485Z,10.50
2018-12-18T15:41:52.897Z,27.50
2018-12-18T15:44:20.270Z,16.07
2018-12-18T15:46:47.670Z,10.93
2018-12-18T15:49:15.060Z,12.73
2018-12-18T15:51:42.459Z,9.80
2018-12-18T15:54:09.854Z,8.73
2018-12-18T15:56:37.249Z,12.60
2018-12-18T15:59:04.607Z,10.50
2018-12-18T16:01:32.067Z,11.63
2018-12-18T16:03:59.411Z,12.67
2018-12-18T16:06:26.797Z,11.03
2018-12-18T16:08:54.229Z,9.53
2018-12-18T16:11:21.622Z,10.70
2018-12-18T16:13:49.107Z,14.80
2018-12-18T16:16:16.671Z,21.43
2018-12-18T16:18:44.045Z,29.60
2018-12-18T16:21:11.402Z,14.70
2018-12-18T16:23:38.777Z,18.07
2018-12-18T16:26:06.128Z,15.80
2018-12-18T16:28:33.512Z,14.63
2018-12-18T16:31:00.912Z,18.47
2018-12-18T16:33:28.312Z,14.97
2018-12-18T16:35:55.701Z,12.23
2018-12-18T16:38:23.122Z,14.47
2018-12-18T16:40:50.493Z,11.33
2018-12-18T16:43:17.960Z,7.27
2018-12-18T16:45:45.368Z,6.97
2018-12-18T16:48:12.764Z,6.17
2018-12-18T16:50:40.182Z,7.77
2018-12-18T16:53:07.627Z,7.50
2018-12-18T16:55:34.988Z,9.10
2018-12-18T16:58:02.975Z,10.60
2018-12-18T17:00:30.368Z,19.03
2018-12-18T17:02:57.738Z,20.13
2018-12-18T17:05:25.201Z,8.10
2018-12-18T17:07:52.621Z,7.03
2018-12-18T17:10:20.066Z,5.20
2018-12-18T17:12:53.038Z,5.93
2018-12-18T17:15:20.527Z,6.40
2018-12-18T17:17:47.917Z,7.50
2018-12-18T17:20:15.527Z,6.57
2018-12-18T17:22:42.877Z,7.47
2018-12-18T17:25:10.282Z,5.77
2018-12-18T17:27:37.618Z,5.47
2018-12-18T17:30:06.004Z,9.63
2018-12-18T17:32:33.411Z,7.73
2018-12-18T17:35:00.832Z,8.37
2018-12-18T17:37:28.216Z,9.17
2018-12-18T17:39:55.604Z,8.17
2018-12-18T17:42:22.986Z,7.40
2018-12-18T17:44:50.360Z,8.07
2018-12-18T17:47:17.763Z,7.87
2018-12-18T17:49:45.200Z,5.63
2018-12-18T17:52:12.592Z,10.30
2018-12-18T17:54:40.010Z,7.30
2018-12-18T17:57:07.516Z,9.60
2018-12-18T17:59:34.897Z,6.60
2018-12-18T18:02:02.411Z,16.83
2018-12-18T18:04:29.788Z,11.37
2018-12-18T18:06:57.228Z,12.20
2018-12-18T18:09:24.604Z,8.30
2018-12-18T18:11:52.053Z,11.37
2018-12-18T18:14:19.442Z,14.00
2018-12-18T18:16:46.952Z,11.67
2018-12-18T18:19:14.339Z,13.07
2018-12-18T18:21:41.811Z,10.23
2018-12-18T18:24:09.241Z,9.83
2018-12-18T18:26:36.659Z,9.90
2018-12-18T18:29:04.114Z,9.57
2018-12-18T18:31:31.495Z,12.67
2018-12-18T18:33:58.913Z,8.70
2018-12-18T18:36:26.306Z,13.47
2018-12-18T18:38:53.748Z,21.47
2018-12-18T18:41:21.099Z,15.63
2018-12-18T18:43:48.543Z,14.57
2018-12-18T18:46:15.918Z,17.23
2018-12-18T18:48:43.348Z,15.80
2018-12-18T18:51:10.751Z,15.07
2018-12-18T18:53:38.209Z,14.20
2018-12-18T18:56:05.407Z,27.67
2018-12-18T18:58:32.807Z,22.57
2018-12-18T19:01:00.274Z,18.57
2018-12-18T19:03:27.759Z,14.13
2018-12-18T19:05:55.271Z,12.53
2018-12-18T19:08:22.788Z,13.87
2018-12-18T19:10:50.132Z,13.00
2018-12-18T19:13:17.526Z,14.27
2018-12-18T19:15:45.022Z,12.63
2018-12-18T19:18:12.399Z,13.30
2018-12-18T19:20:39.853Z,11.13
2018-12-18T19:23:07.257Z,13.47
2018-12-18T19:25:34.647Z,10.50
2018-12-18T19:28:02.058Z,12.67
2018-12-18T19:30:29.502Z,12.10
2018-12-18T19:32:56.927Z,12.27
2018-12-18T19:35:24.477Z,11.77
2018-12-18T19:37:51.883Z,10.83
2018-12-18T19:40:19.373Z,12.53
2018-12-18T19:42:46.821Z,12.90
2018-12-18T19:45:14.399Z,12.67
2018-12-18T19:47:41.883Z,20.07
2018-12-18T19:50:14.884Z,24.47
2018-12-18T19:52:42.286Z,21.00
2018-12-18T19:55:09.646Z,18.77
2018-12-18T19:57:59.461Z,21.83
2018-12-18T20:00:27.980Z,17.50
2018-12-18T20:02:58.775Z,18.77
2018-12-18T20:05:26.136Z,25.63
2018-12-18T20:07:53.608Z,26.37
2018-12-18T20:10:21.061Z,22.70
2018-12-18T20:12:52.145Z,47.40
2018-12-18T20:15:23.381Z,40.70
2018-12-18T20:17:55.529Z,45.80
2018-12-18T20:20:22.943Z,18.30
2018-12-18T20:22:52.423Z,17.53
2018-12-18T20:25:23.098Z,27.43
2018-12-18T20:27:50.559Z,23.40
2018-12-18T20:30:19.448Z,20.30
2018-12-18T20:32:46.873Z,19.53
2018-12-18T20:35:18.254Z,25.67
2018-12-18T20:37:49.401Z,42.87
2018-12-18T20:41:47.088Z,61.27
2018-12-18T20:44:19.999Z,40.63
2018-12-18T20:46:53.069Z,25.60
2018-12-18T20:49:20.494Z,24.63
2018-12-18T20:51:49.768Z,27.17
2018-12-18T20:54:17.248Z,20.43
2018-12-18T20:56:52.194Z,62.33
2018-12-18T20:59:25.087Z,26.17
2018-12-18T21:01:52.486Z,26.63
2018-12-18T21:04:19.944Z,39.17
2018-12-18T21:06:50.674Z,25.80
2018-12-18T21:09:20.647Z,28.37
2018-12-18T21:11:47.993Z,29.47
2018-12-18T21:19:06.453Z,23.23
2018-12-18T21:21:33.823Z,24.70
2018-12-18T21:24:01.261Z,31.10
2018-12-18T21:26:28.692Z,26.77
2018-12-18T21:28:57.878Z,31.17
2018-12-18T21:31:31.554Z,33.07
2018-12-18T21:34:00.358Z,27.67
2018-12-18T21:36:27.859Z,27.67
2018-12-18T21:38:58.499Z,26.00
2018-12-18T21:41:25.981Z,29.80
2018-12-18T21:43:53.364Z,27.43
2018-12-18T21:46:28.858Z,25.10
2018-12-18T21:49:01.763Z,26.57
2018-12-18T21:51:29.170Z,30.00
2018-12-18T21:53:57.018Z,30.67
2018-12-18T21:56:25.208Z,31.97
2018-12-18T21:58:55.324Z,30.60
2018-12-18T22:01:22.888Z,32.07
2018-12-18T22:03:50.489Z,34.67
2018-12-18T22:06:19.492Z,33.87
2018-12-18T22:08:50.653Z,31.70
2018-12-18T22:11:24.076Z,32.80
2018-12-18T22:13:51.846Z,37.73
2018-12-18T22:16:19.582Z,36.63
2018-12-18T22:18:52.971Z,34.43
2018-12-18T22:21:23.533Z,33.87
2018-12-18T22:23:51.214Z,34.60
2018-12-18T22:26:18.554Z,32.40
2018-12-18T22:28:46.315Z,37.63
2018-12-18T22:31:13.724Z,36.43
2018-12-18T22:33:41.138Z,36.40
2018-12-18T22:36:08.787Z,37.30
2018-12-18T22:38:43.594Z,32.47
2018-12-18T22:41:13.287Z,35.73
2018-12-18T22:43:40.696Z,31.90
2018-12-18T22:46:10.125Z,31.77
2018-12-18T22:48:37.774Z,32.90
2018-12-18T22:51:07.138Z,31.13
2018-12-18T22:53:34.584Z,34.27
2018-12-18T22:56:05.693Z,35.23
2018-12-18T22:58:39.112Z,33.17
2018-12-18T23:01:12.196Z,35.97
2018-12-18T23:03:47.952Z,36.77
2018-12-18T23:06:15.723Z,38.83
2018-12-18T23:08:50.295Z,41.77
2018-12-18T23:11:19.017Z,38.23
2018-12-18T23:13:53.922Z,37.93
2018-12-18T23:16:25.168Z,43.67
2018-12-18T23:18:53.252Z,38.17
2018-12-18T23:21:24.013Z,40.37
2018-12-18T23:23:53.438Z,38.67
2018-12-18T23:26:35.877Z,44.63
2018-12-18T23:29:07.277Z,42.77
2018-12-18T23:31:34.896Z,38.37
2018-12-18T23:34:06.239Z,40.57
2018-12-18T23:36:35.334Z,36.43
2018-12-18T23:39:08.519Z,36.40
2018-12-18T23:41:39.919Z,39.33
2018-12-18T23:44:07.299Z,38.07
2018-12-18T23:46:41.516Z,36.77
2018-12-18T23:49:08.890Z,35.77
2018-12-18T23:51:36.388Z,35.90
2018-12-18T23:54:05.341Z,38.93
2018-12-18T23:56:32.751Z,35.20
2018-12-18T23:59:03.436Z,37.07
